sensor_id;sensor_type;location;lat;lon;timestamp;temperature;humidity
19348;DHT22;9810;52.480;9.806;2022-09-16T00:01:28;11.60;99.90
19348;DHT22;9810;52.480;9.806;2022-09-16T00:03:56;11.60;99.90
19348;DHT22;9810;52.480;9.806;2022-09-16T00:06:25;11.50;99.90
19348;DHT22;9810;52.480;9.806;2022-09-16T00:08:54;11.60;99.90
19348;DHT22;9810;52.480;9.806;2022-09-16T00:11:23;11.60;99.90
19348;DHT22;9810;52.480;9.806;2022-09-16T00:13:50;11.60;99.90
19348;DHT22;9810;52.480;9.806;2022-09-16T00:16:19;11.60;99.90
19348;DHT22;9810;52.480;9.806;2022-09-16T00:18:47;11.50;99.90
19348;DHT22;9810;52.480;9.806;2022-09-16T00:21:14;11.50;99.90
19348;DHT22;9810;52.480;9.806;2022-09-16T00:23:42;11.50;99.90
19348;DHT22;9810;52.480;9.806;2022-09-16T00:26:08;11.50;99.90
19348;DHT22;9810;52.480;9.806;2022-09-16T00:28:37;11.50;99.90
19348;DHT22;9810;52.480;9.806;2022-09-16T00:31:04;11.50;99.90
19348;DHT22;9810;52.480;9.806;2022-09-16T00:33:32;11.50;99.90
19348;DHT22;9810;52.480;9.806;2022-09-16T00:36:07;11.50;99.90
19348;DHT22;9810;52.480;9.806;2022-09-16T00:38:34;11.40;99.90
19348;DHT22;9810;52.480;9.806;2022-09-16T00:41:03;11.50;99.90
19348;DHT22;9810;52.480;9.806;2022-09-16T00:46:30;11.40;99.90
19348;DHT22;9810;52.480;9.806;2022-09-16T00:49:01;11.30;99.90
19348;DHT22;9810;52.480;9.806;2022-09-16T00:51:30;11.30;99.90
19348;DHT22;9810;52.480;9.806;2022-09-16T00:53:59;11.30;99.90
19348;DHT22;9810;52.480;9.806;2022-09-16T00:56:30;11.30;99.90
19348;DHT22;9810;52.480;9.806;2022-09-16T00:59:02;11.30;99.90
19348;DHT22;9810;52.480;9.806;2022-09-16T01:01:33;11.40;99.90
19348;DHT22;9810;52.480;9.806;2022-09-16T01:04:03;11.30;99.90
19348;DHT22;9810;52.480;9.806;2022-09-16T01:06:35;11.40;99.90
19348;DHT22;9810;52.480;9.806;2022-09-16T01:09:04;11.40;99.90
19348;DHT22;9810;52.480;9.806;2022-09-16T01:11:31;11.40;99.90
19348;DHT22;9810;52.480;9.806;2022-09-16T01:13:59;11.50;99.90
19348;DHT22;9810;52.480;9.806;2022-09-16T01:16:45;11.60;99.90
19348;DHT22;9810;52.480;9.806;2022-09-16T01:19:25;11.50;99.90
19348;DHT22;9810;52.480;9.806;2022-09-16T01:22:06;11.70;99.90
19348;DHT22;9810;52.480;9.806;2022-09-16T01:24:52;11.60;99.90
19348;DHT22;9810;52.480;9.806;2022-09-16T01:27:46;11.80;99.90
19348;DHT22;9810;52.480;9.806;2022-09-16T01:30:38;11.80;99.90
19348;DHT22;9810;52.480;9.806;2022-09-16T01:33:13;11.80;99.90
19348;DHT22;9810;52.480;9.806;2022-09-16T01:35:59;11.70;99.90
19348;DHT22;9810;52.480;9.806;2022-09-16T01:38:41;11.70;99.90
19348;DHT22;9810;52.480;9.806;2022-09-16T01:41:17;11.70;99.90
19348;DHT22;9810;52.480;9.806;2022-09-16T01:43:51;11.70;99.90
19348;DHT22;9810;52.480;9.806;2022-09-16T01:46:29;11.70;99.90
19348;DHT22;9810;52.480;9.806;2022-09-16T01:49:01;11.70;99.90
19348;DHT22;9810;52.480;9.806;2022-09-16T01:51:40;11.70;99.90
19348;DHT22;9810;52.480;9.806;2022-09-16T01:54:12;11.70;99.90
19348;DHT22;9810;52.480;9.806;2022-09-16T01:56:48;11.80;99.90
19348;DHT22;9810;52.480;9.806;2022-09-16T01:59:22;11.70;99.90
19348;DHT22;9810;52.480;9.806;2022-09-16T02:01:57;11.70;99.90
19348;DHT22;9810;52.480;9.806;2022-09-16T02:04:30;11.60;99.90
19348;DHT22;9810;52.480;9.806;2022-09-16T02:07:01;11.60;99.90
19348;DHT22;9810;52.480;9.806;2022-09-16T02:09:33;11.60;99.90
19348;DHT22;9810;52.480;9.806;2022-09-16T02:12:04;11.70;99.90
19348;DHT22;9810;52.480;9.806;2022-09-16T02:14:36;11.70;99.90
19348;DHT22;9810;52.480;9.806;2022-09-16T02:17:10;11.80;99.90
19348;DHT22;9810;52.480;9.806;2022-09-16T02:19:42;11.80;99.90
19348;DHT22;9810;52.480;9.806;2022-09-16T02:22:12;11.80;99.90
19348;DHT22;9810;52.480;9.806;2022-09-16T02:24:42;11.90;99.90
19348;DHT22;9810;52.480;9.806;2022-09-16T02:27:15;11.70;99.90
19348;DHT22;9810;52.480;9.806;2022-09-16T02:29:46;11.90;99.90
19348;DHT22;9810;52.480;9.806;2022-09-16T02:32:18;11.90;99.90
19348;DHT22;9810;52.480;9.806;2022-09-16T02:34:49;11.90;99.90
19348;DHT22;9810;52.480;9.806;2022-09-16T02:37:18;11.90;99.90
19348;DHT22;9810;52.480;9.806;2022-09-16T02:39:50;11.90;99.90
19348;DHT22;9810;52.480;9.806;2022-09-16T02:42:19;11.90;99.90
19348;DHT22;9810;52.480;9.806;2022-09-16T02:44:46;11.90;99.90
19348;DHT22;9810;52.480;9.806;2022-09-16T02:47:20;11.90;99.90
19348;DHT22;9810;52.480;9.806;2022-09-16T02:49:55;12.00;99.90
19348;DHT22;9810;52.480;9.806;2022-09-16T02:52:34;11.90;99.90
19348;DHT22;9810;52.480;9.806;2022-09-16T02:55:04;12.00;99.90
19348;DHT22;9810;52.480;9.806;2022-09-16T02:57:36;12.00;99.90
19348;DHT22;9810;52.480;9.806;2022-09-16T03:00:05;12.00;99.90
19348;DHT22;9810;52.480;9.806;2022-09-16T03:02:34;11.90;99.90
19348;DHT22;9810;52.480;9.806;2022-09-16T03:05:02;12.00;99.90
19348;DHT22;9810;52.480;9.806;2022-09-16T03:07:29;12.00;99.90
19348;DHT22;9810;52.480;9.806;2022-09-16T03:09:56;12.00;99.90
19348;DHT22;9810;52.480;9.806;2022-09-16T03:12:49;11.90;99.90
19348;DHT22;9810;52.480;9.806;2022-09-16T03:15:35;11.90;99.90
19348;DHT22;9810;52.480;9.806;2022-09-16T03:18:34;11.80;99.90
19348;DHT22;9810;52.480;9.806;2022-09-16T03:21:09;11.90;99.90
19348;DHT22;9810;52.480;9.806;2022-09-16T03:23:46;11.90;99.90
19348;DHT22;9810;52.480;9.806;2022-09-16T03:26:19;11.90;99.90
19348;DHT22;9810;52.480;9.806;2022-09-16T03:28:57;11.90;99.90
19348;DHT22;9810;52.480;9.806;2022-09-16T03:31:31;11.90;99.90
19348;DHT22;9810;52.480;9.806;2022-09-16T03:34:07;11.90;99.90
19348;DHT22;9810;52.480;9.806;2022-09-16T03:36:39;11.90;99.90
19348;DHT22;9810;52.480;9.806;2022-09-16T03:39:09;11.90;99.90
19348;DHT22;9810;52.480;9.806;2022-09-16T03:41:37;11.90;99.90
19348;DHT22;9810;52.480;9.806;2022-09-16T03:44:04;11.90;99.90
19348;DHT22;9810;52.480;9.806;2022-09-16T03:46:32;11.90;99.90
19348;DHT22;9810;52.480;9.806;2022-09-16T03:48:59;11.80;99.90
19348;DHT22;9810;52.480;9.806;2022-09-16T03:51:28;11.80;99.90
19348;DHT22;9810;52.480;9.806;2022-09-16T03:53:55;11.80;99.90
19348;DHT22;9810;52.480;9.806;2022-09-16T03:56:22;11.90;99.90
19348;DHT22;9810;52.480;9.806;2022-09-16T03:58:50;11.90;99.90
19348;DHT22;9810;52.480;9.806;2022-09-16T04:01:18;11.90;99.90
19348;DHT22;9810;52.480;9.806;2022-09-16T04:03:45;11.90;99.90
19348;DHT22;9810;52.480;9.806;2022-09-16T04:06:12;11.90;99.90
19348;DHT22;9810;52.480;9.806;2022-09-16T04:08:41;11.90;99.90
19348;DHT22;9810;52.480;9.806;2022-09-16T04:11:09;11.90;99.90
19348;DHT22;9810;52.480;9.806;2022-09-16T04:13:36;11.90;99.90
19348;DHT22;9810;52.480;9.806;2022-09-16T04:16:04;11.90;99.90
19348;DHT22;9810;52.480;9.806;2022-09-16T04:18:32;11.80;99.90
19348;DHT22;9810;52.480;9.806;2022-09-16T04:21:02;11.70;99.90
19348;DHT22;9810;52.480;9.806;2022-09-16T04:23:29;11.80;99.90
19348;DHT22;9810;52.480;9.806;2022-09-16T04:26:00;11.80;99.90
19348;DHT22;9810;52.480;9.806;2022-09-16T04:28:29;11.80;99.90
19348;DHT22;9810;52.480;9.806;2022-09-16T04:30:59;11.90;99.90
19348;DHT22;9810;52.480;9.806;2022-09-16T04:33:27;11.90;99.90
19348;DHT22;9810;52.480;9.806;2022-09-16T04:36:01;11.90;99.90
19348;DHT22;9810;52.480;9.806;2022-09-16T04:38:29;11.80;99.90
19348;DHT22;9810;52.480;9.806;2022-09-16T04:41:01;11.70;99.90
19348;DHT22;9810;52.480;9.806;2022-09-16T04:43:28;11.80;99.90
19348;DHT22;9810;52.480;9.806;2022-09-16T04:45:56;11.90;99.90
19348;DHT22;9810;52.480;9.806;2022-09-16T04:48:23;11.90;99.90
19348;DHT22;9810;52.480;9.806;2022-09-16T04:50:51;11.80;99.90
19348;DHT22;9810;52.480;9.806;2022-09-16T04:53:18;11.90;99.90
19348;DHT22;9810;52.480;9.806;2022-09-16T04:55:46;11.90;99.90
19348;DHT22;9810;52.480;9.806;2022-09-16T04:58:15;11.80;99.90
19348;DHT22;9810;52.480;9.806;2022-09-16T05:00:42;11.80;99.90
19348;DHT22;9810;52.480;9.806;2022-09-16T05:03:09;11.70;99.90
19348;DHT22;9810;52.480;9.806;2022-09-16T05:05:36;11.80;99.90
19348;DHT22;9810;52.480;9.806;2022-09-16T05:08:03;11.90;99.90
19348;DHT22;9810;52.480;9.806;2022-09-16T05:10:30;11.90;99.90
19348;DHT22;9810;52.480;9.806;2022-09-16T05:12:57;11.80;99.90
19348;DHT22;9810;52.480;9.806;2022-09-16T05:15:26;11.90;99.90
19348;DHT22;9810;52.480;9.806;2022-09-16T05:17:53;12.00;99.90
19348;DHT22;9810;52.480;9.806;2022-09-16T05:20:20;11.80;99.90
19348;DHT22;9810;52.480;9.806;2022-09-16T05:22:49;11.90;99.90
19348;DHT22;9810;52.480;9.806;2022-09-16T05:25:16;11.90;99.90
19348;DHT22;9810;52.480;9.806;2022-09-16T05:27:44;11.90;99.90
19348;DHT22;9810;52.480;9.806;2022-09-16T05:30:11;11.90;99.90
19348;DHT22;9810;52.480;9.806;2022-09-16T05:32:42;11.90;99.90
19348;DHT22;9810;52.480;9.806;2022-09-16T05:35:09;11.80;99.90
19348;DHT22;9810;52.480;9.806;2022-09-16T05:37:36;11.80;99.90
19348;DHT22;9810;52.480;9.806;2022-09-16T05:40:04;11.70;99.90
19348;DHT22;9810;52.480;9.806;2022-09-16T05:42:32;11.80;99.90
19348;DHT22;9810;52.480;9.806;2022-09-16T05:44:59;11.80;99.90
19348;DHT22;9810;52.480;9.806;2022-09-16T05:47:25;11.80;99.90
19348;DHT22;9810;52.480;9.806;2022-09-16T05:49:54;12.00;99.90
19348;DHT22;9810;52.480;9.806;2022-09-16T05:52:21;12.00;99.90
19348;DHT22;9810;52.480;9.806;2022-09-16T05:54:50;12.10;99.90
19348;DHT22;9810;52.480;9.806;2022-09-16T05:57:16;12.10;99.90
19348;DHT22;9810;52.480;9.806;2022-09-16T05:59:43;12.20;99.90
19348;DHT22;9810;52.480;9.806;2022-09-16T06:02:10;12.20;99.90
19348;DHT22;9810;52.480;9.806;2022-09-16T06:04:37;12.30;99.90
19348;DHT22;9810;52.480;9.806;2022-09-16T06:07:06;12.30;99.90
19348;DHT22;9810;52.480;9.806;2022-09-16T06:09:33;12.40;99.90
19348;DHT22;9810;52.480;9.806;2022-09-16T06:12:01;12.40;99.90
19348;DHT22;9810;52.480;9.806;2022-09-16T06:14:30;12.40;99.90
19348;DHT22;9810;52.480;9.806;2022-09-16T06:16:57;12.50;99.90
19348;DHT22;9810;52.480;9.806;2022-09-16T06:19:25;12.60;99.90
19348;DHT22;9810;52.480;9.806;2022-09-16T06:21:52;12.70;99.90
19348;DHT22;9810;52.480;9.806;2022-09-16T06:24:21;12.90;99.90
19348;DHT22;9810;52.480;9.806;2022-09-16T06:26:48;12.80;99.90
19348;DHT22;9810;52.480;9.806;2022-09-16T06:29:16;12.90;99.90
19348;DHT22;9810;52.480;9.806;2022-09-16T06:31:43;13.00;99.90
19348;DHT22;9810;52.480;9.806;2022-09-16T06:34:14;13.00;99.90
19348;DHT22;9810;52.480;9.806;2022-09-16T06:36:43;12.90;99.90
19348;DHT22;9810;52.480;9.806;2022-09-16T06:39:11;12.60;99.90
19348;DHT22;9810;52.480;9.806;2022-09-16T06:41:40;12.70;99.90
19348;DHT22;9810;52.480;9.806;2022-09-16T06:44:07;12.70;99.90
19348;DHT22;9810;52.480;9.806;2022-09-16T06:46:35;12.80;99.90
19348;DHT22;9810;52.480;9.806;2022-09-16T06:49:03;12.90;99.90
19348;DHT22;9810;52.480;9.806;2022-09-16T06:51:33;12.90;99.90
19348;DHT22;9810;52.480;9.806;2022-09-16T06:54:02;13.00;99.90
19348;DHT22;9810;52.480;9.806;2022-09-16T06:56:30;13.00;99.90
19348;DHT22;9810;52.480;9.806;2022-09-16T06:59:00;13.00;99.90
19348;DHT22;9810;52.480;9.806;2022-09-16T07:01:28;13.30;99.90
19348;DHT22;9810;52.480;9.806;2022-09-16T07:03:57;13.30;99.90
19348;DHT22;9810;52.480;9.806;2022-09-16T07:06:27;13.30;99.90
19348;DHT22;9810;52.480;9.806;2022-09-16T07:08:54;13.30;99.90
19348;DHT22;9810;52.480;9.806;2022-09-16T07:11:22;13.40;99.90
19348;DHT22;9810;52.480;9.806;2022-09-16T07:13:50;13.50;99.90
19348;DHT22;9810;52.480;9.806;2022-09-16T07:16:24;13.70;99.90
19348;DHT22;9810;52.480;9.806;2022-09-16T07:18:52;13.50;99.90
19348;DHT22;9810;52.480;9.806;2022-09-16T07:21:21;13.40;99.90
19348;DHT22;9810;52.480;9.806;2022-09-16T07:23:53;13.60;99.90
19348;DHT22;9810;52.480;9.806;2022-09-16T07:26:22;13.80;99.90
19348;DHT22;9810;52.480;9.806;2022-09-16T07:28:51;13.80;99.90
19348;DHT22;9810;52.480;9.806;2022-09-16T07:31:22;14.10;99.90
19348;DHT22;9810;52.480;9.806;2022-09-16T07:33:52;14.20;99.90
19348;DHT22;9810;52.480;9.806;2022-09-16T07:36:21;14.30;99.90
19348;DHT22;9810;52.480;9.806;2022-09-16T07:38:51;14.50;99.90
19348;DHT22;9810;52.480;9.806;2022-09-16T07:41:22;14.60;99.90
19348;DHT22;9810;52.480;9.806;2022-09-16T07:43:51;14.60;99.90
19348;DHT22;9810;52.480;9.806;2022-09-16T07:46:21;14.70;99.90
19348;DHT22;9810;52.480;9.806;2022-09-16T07:48:51;15.20;99.90
19348;DHT22;9810;52.480;9.806;2022-09-16T07:51:27;15.30;99.90
19348;DHT22;9810;52.480;9.806;2022-09-16T07:53:57;15.90;99.90
19348;DHT22;9810;52.480;9.806;2022-09-16T07:56:26;16.40;99.90
19348;DHT22;9810;52.480;9.806;2022-09-16T07:58:55;17.70;99.90
19348;DHT22;9810;52.480;9.806;2022-09-16T08:01:26;18.30;99.90
19348;DHT22;9810;52.480;9.806;2022-09-16T08:03:57;18.70;99.90
19348;DHT22;9810;52.480;9.806;2022-09-16T08:06:27;19.20;99.90
19348;DHT22;9810;52.480;9.806;2022-09-16T08:08:57;19.90;99.90
19348;DHT22;9810;52.480;9.806;2022-09-16T08:11:27;20.40;99.90
19348;DHT22;9810;52.480;9.806;2022-09-16T08:13:57;19.90;99.90
19348;DHT22;9810;52.480;9.806;2022-09-16T08:16:26;20.10;99.90
19348;DHT22;9810;52.480;9.806;2022-09-16T08:18:55;19.80;99.90
19348;DHT22;9810;52.480;9.806;2022-09-16T08:21:24;19.80;99.90
19348;DHT22;9810;52.480;9.806;2022-09-16T08:23:53;19.90;99.90
19348;DHT22;9810;52.480;9.806;2022-09-16T08:26:20;19.30;99.90
19348;DHT22;9810;52.480;9.806;2022-09-16T08:28:48;18.80;99.90
19348;DHT22;9810;52.480;9.806;2022-09-16T08:31:16;17.90;99.90
19348;DHT22;9810;52.480;9.806;2022-09-16T08:33:46;17.60;99.90
19348;DHT22;9810;52.480;9.806;2022-09-16T08:36:15;17.30;99.90
19348;DHT22;9810;52.480;9.806;2022-09-16T08:38:45;17.30;99.90
19348;DHT22;9810;52.480;9.806;2022-09-16T08:41:47;16.70;99.90
19348;DHT22;9810;52.480;9.806;2022-09-16T08:44:25;16.50;99.90
19348;DHT22;9810;52.480;9.806;2022-09-16T08:46:59;16.40;99.90
19348;DHT22;9810;52.480;9.806;2022-09-16T08:49:33;17.40;99.90
19348;DHT22;9810;52.480;9.806;2022-09-16T08:52:07;19.20;99.90
19348;DHT22;9810;52.480;9.806;2022-09-16T08:54:41;20.50;99.90
19348;DHT22;9810;52.480;9.806;2022-09-16T08:57:13;20.70;99.90
19348;DHT22;9810;52.480;9.806;2022-09-16T08:59:45;20.80;99.90
19348;DHT22;9810;52.480;9.806;2022-09-16T09:02:27;22.10;99.90
19348;DHT22;9810;52.480;9.806;2022-09-16T09:05:05;22.10;99.90
19348;DHT22;9810;52.480;9.806;2022-09-16T09:07:39;22.10;99.90
19348;DHT22;9810;52.480;9.806;2022-09-16T09:10:15;20.90;99.90
19348;DHT22;9810;52.480;9.806;2022-09-16T09:12:49;20.90;99.90
19348;DHT22;9810;52.480;9.806;2022-09-16T09:15:28;20.70;99.90
19348;DHT22;9810;52.480;9.806;2022-09-16T09:18:16;21.60;99.90
19348;DHT22;9810;52.480;9.806;2022-09-16T09:20:54;21.00;99.90
19348;DHT22;9810;52.480;9.806;2022-09-16T09:23:36;20.20;99.90
19348;DHT22;9810;52.480;9.806;2022-09-16T09:26:13;20.30;99.90
19348;DHT22;9810;52.480;9.806;2022-09-16T09:29:13;20.20;99.90
19348;DHT22;9810;52.480;9.806;2022-09-16T09:31:46;20.40;99.90
19348;DHT22;9810;52.480;9.806;2022-09-16T09:34:36;19.20;99.90
19348;DHT22;9810;52.480;9.806;2022-09-16T09:37:26;18.90;99.90
19348;DHT22;9810;52.480;9.806;2022-09-16T09:40:01;18.20;99.90
19348;DHT22;9810;52.480;9.806;2022-09-16T09:42:34;17.90;99.90
19348;DHT22;9810;52.480;9.806;2022-09-16T09:45:04;17.60;99.90
19348;DHT22;9810;52.480;9.806;2022-09-16T09:47:42;17.80;99.90
19348;DHT22;9810;52.480;9.806;2022-09-16T09:50:17;18.50;99.90
19348;DHT22;9810;52.480;9.806;2022-09-16T09:52:54;18.20;99.90
19348;DHT22;9810;52.480;9.806;2022-09-16T09:55:25;18.40;99.90
19348;DHT22;9810;52.480;9.806;2022-09-16T09:58:01;18.00;99.90
19348;DHT22;9810;52.480;9.806;2022-09-16T10:00:31;17.50;99.90
19348;DHT22;9810;52.480;9.806;2022-09-16T10:03:05;18.10;99.90
19348;DHT22;9810;52.480;9.806;2022-09-16T10:05:33;19.60;99.90
19348;DHT22;9810;52.480;9.806;2022-09-16T10:08:04;18.60;99.90
19348;DHT22;9810;52.480;9.806;2022-09-16T10:10:34;17.60;99.90
19348;DHT22;9810;52.480;9.806;2022-09-16T10:13:07;17.30;99.90
19348;DHT22;9810;52.480;9.806;2022-09-16T10:15:35;17.30;99.90
19348;DHT22;9810;52.480;9.806;2022-09-16T10:18:10;17.60;99.90
19348;DHT22;9810;52.480;9.806;2022-09-16T10:20:40;17.40;99.90
19348;DHT22;9810;52.480;9.806;2022-09-16T10:23:15;17.90;99.90
19348;DHT22;9810;52.480;9.806;2022-09-16T10:25:45;18.30;99.90
19348;DHT22;9810;52.480;9.806;2022-09-16T10:28:20;18.90;99.90
19348;DHT22;9810;52.480;9.806;2022-09-16T10:30:49;20.00;99.90
19348;DHT22;9810;52.480;9.806;2022-09-16T10:33:22;20.20;99.90
19348;DHT22;9810;52.480;9.806;2022-09-16T10:35:53;19.10;99.90
19348;DHT22;9810;52.480;9.806;2022-09-16T10:38:26;18.20;99.90
19348;DHT22;9810;52.480;9.806;2022-09-16T10:41:03;17.40;99.90
19348;DHT22;9810;52.480;9.806;2022-09-16T10:43:32;17.90;99.90
19348;DHT22;9810;52.480;9.806;2022-09-16T10:46:01;17.80;99.90
19348;DHT22;9810;52.480;9.806;2022-09-16T10:48:32;17.70;99.90
19348;DHT22;9810;52.480;9.806;2022-09-16T10:51:04;17.40;99.90
19348;DHT22;9810;52.480;9.806;2022-09-16T10:53:37;17.70;99.90
19348;DHT22;9810;52.480;9.806;2022-09-16T10:56:13;18.30;99.90
19348;DHT22;9810;52.480;9.806;2022-09-16T10:58:44;18.20;99.90
19348;DHT22;9810;52.480;9.806;2022-09-16T11:01:26;18.10;99.90
19348;DHT22;9810;52.480;9.806;2022-09-16T11:04:23;17.70;99.90
19348;DHT22;9810;52.480;9.806;2022-09-16T11:07:03;17.70;99.90
19348;DHT22;9810;52.480;9.806;2022-09-16T11:09:44;17.00;99.90
19348;DHT22;9810;52.480;9.806;2022-09-16T11:12:55;17.30;99.90
19348;DHT22;9810;52.480;9.806;2022-09-16T11:15:33;17.70;99.90
19348;DHT22;9810;52.480;9.806;2022-09-16T11:18:23;17.10;99.90
19348;DHT22;9810;52.480;9.806;2022-09-16T11:23:57;18.30;99.90
19348;DHT22;9810;52.480;9.806;2022-09-16T11:26:39;19.30;99.90
19348;DHT22;9810;52.480;9.806;2022-09-16T11:29:22;20.30;99.90
19348;DHT22;9810;52.480;9.806;2022-09-16T11:32:01;20.20;99.90
19348;DHT22;9810;52.480;9.806;2022-09-16T11:34:46;19.50;99.90
19348;DHT22;9810;52.480;9.806;2022-09-16T11:37:21;19.40;99.90
19348;DHT22;9810;52.480;9.806;2022-09-16T11:40:19;19.50;99.90
19348;DHT22;9810;52.480;9.806;2022-09-16T11:42:56;19.20;99.90
19348;DHT22;9810;52.480;9.806;2022-09-16T11:45:36;18.70;99.90
19348;DHT22;9810;52.480;9.806;2022-09-16T11:48:33;18.40;99.90
19348;DHT22;9810;52.480;9.806;2022-09-16T11:51:14;18.70;99.90
19348;DHT22;9810;52.480;9.806;2022-09-16T11:53:57;18.50;99.90
19348;DHT22;9810;52.480;9.806;2022-09-16T11:56:34;18.50;99.90
19348;DHT22;9810;52.480;9.806;2022-09-16T11:59:12;17.80;99.90
19348;DHT22;9810;52.480;9.806;2022-09-16T12:01:43;17.70;99.90
19348;DHT22;9810;52.480;9.806;2022-09-16T12:04:19;18.10;99.90
19348;DHT22;9810;52.480;9.806;2022-09-16T12:06:57;18.10;99.90
19348;DHT22;9810;52.480;9.806;2022-09-16T12:09:35;18.10;99.90
19348;DHT22;9810;52.480;9.806;2022-09-16T12:12:09;18.10;99.90
19348;DHT22;9810;52.480;9.806;2022-09-16T12:14:44;18.30;99.90
19348;DHT22;9810;52.480;9.806;2022-09-16T12:17:16;18.60;99.90
19348;DHT22;9810;52.480;9.806;2022-09-16T12:19:48;18.90;99.90
19348;DHT22;9810;52.480;9.806;2022-09-16T12:22:30;18.80;99.90
19348;DHT22;9810;52.480;9.806;2022-09-16T12:25:18;18.50;99.90
19348;DHT22;9810;52.480;9.806;2022-09-16T12:27:56;18.60;99.90
19348;DHT22;9810;52.480;9.806;2022-09-16T12:30:34;18.70;99.90
19348;DHT22;9810;52.480;9.806;2022-09-16T12:33:05;18.50;99.90
19348;DHT22;9810;52.480;9.806;2022-09-16T12:35:41;18.00;99.90
19348;DHT22;9810;52.480;9.806;2022-09-16T12:38:15;17.20;99.90
19348;DHT22;9810;52.480;9.806;2022-09-16T12:41:03;16.20;99.90
19348;DHT22;9810;52.480;9.806;2022-09-16T12:46:53;15.70;99.90
19348;DHT22;9810;52.480;9.806;2022-09-16T12:52:37;15.30;99.90
19348;DHT22;9810;52.480;9.806;2022-09-16T12:55:37;15.40;99.90
19348;DHT22;9810;52.480;9.806;2022-09-16T13:01:17;16.60;99.90
19348;DHT22;9810;52.480;9.806;2022-09-16T13:03:50;17.00;99.90
19348;DHT22;9810;52.480;9.806;2022-09-16T13:06:24;17.00;99.90
19348;DHT22;9810;52.480;9.806;2022-09-16T13:08:52;16.90;99.90
19348;DHT22;9810;52.480;9.806;2022-09-16T13:11:22;16.50;99.90
19348;DHT22;9810;52.480;9.806;2022-09-16T13:13:52;16.40;99.90
19348;DHT22;9810;52.480;9.806;2022-09-16T13:16:29;16.70;99.90
19348;DHT22;9810;52.480;9.806;2022-09-16T13:22:11;17.10;99.90
19348;DHT22;9810;52.480;9.806;2022-09-16T13:24:42;17.20;99.90
19348;DHT22;9810;52.480;9.806;2022-09-16T13:27:27;17.20;99.90
19348;DHT22;9810;52.480;9.806;2022-09-16T13:30:15;17.10;99.90
19348;DHT22;9810;52.480;9.806;2022-09-16T13:32:44;17.00;99.90
19348;DHT22;9810;52.480;9.806;2022-09-16T13:35:24;17.00;99.90
19348;DHT22;9810;52.480;9.806;2022-09-16T13:38:19;16.80;99.90
19348;DHT22;9810;52.480;9.806;2022-09-16T13:40:55;16.90;99.90
19348;DHT22;9810;52.480;9.806;2022-09-16T13:43:31;17.30;99.90
19348;DHT22;9810;52.480;9.806;2022-09-16T13:46:06;17.30;99.90
19348;DHT22;9810;52.480;9.806;2022-09-16T13:48:41;17.40;99.90
19348;DHT22;9810;52.480;9.806;2022-09-16T13:51:16;17.40;99.90
19348;DHT22;9810;52.480;9.806;2022-09-16T13:53:50;17.30;99.90
19348;DHT22;9810;52.480;9.806;2022-09-16T13:56:41;17.30;99.90
19348;DHT22;9810;52.480;9.806;2022-09-16T13:59:21;17.30;99.90
19348;DHT22;9810;52.480;9.806;2022-09-16T14:02:05;17.20;99.90
19348;DHT22;9810;52.480;9.806;2022-09-16T14:04:51;17.30;99.90
19348;DHT22;9810;52.480;9.806;2022-09-16T14:07:28;17.30;99.90
19348;DHT22;9810;52.480;9.806;2022-09-16T14:10:06;17.50;99.90
19348;DHT22;9810;52.480;9.806;2022-09-16T14:12:43;17.40;99.90
19348;DHT22;9810;52.480;9.806;2022-09-16T14:15:14;17.50;99.90
19348;DHT22;9810;52.480;9.806;2022-09-16T14:17:44;17.10;99.90
19348;DHT22;9810;52.480;9.806;2022-09-16T14:20:14;16.90;99.90
19348;DHT22;9810;52.480;9.806;2022-09-16T14:22:42;16.70;99.90
19348;DHT22;9810;52.480;9.806;2022-09-16T14:25:35;16.60;99.90
19348;DHT22;9810;52.480;9.806;2022-09-16T14:28:15;16.40;99.90
19348;DHT22;9810;52.480;9.806;2022-09-16T14:30:45;16.30;99.90
19348;DHT22;9810;52.480;9.806;2022-09-16T14:33:14;16.50;99.90
19348;DHT22;9810;52.480;9.806;2022-09-16T14:35:43;16.60;99.90
19348;DHT22;9810;52.480;9.806;2022-09-16T14:38:15;16.50;99.90
19348;DHT22;9810;52.480;9.806;2022-09-16T14:40:44;16.60;99.90
19348;DHT22;9810;52.480;9.806;2022-09-16T14:43:15;16.70;99.90
19348;DHT22;9810;52.480;9.806;2022-09-16T14:45:46;16.60;99.90
19348;DHT22;9810;52.480;9.806;2022-09-16T14:48:15;16.60;99.90
19348;DHT22;9810;52.480;9.806;2022-09-16T14:50:46;16.50;99.90
19348;DHT22;9810;52.480;9.806;2022-09-16T14:53:25;16.50;99.90
19348;DHT22;9810;52.480;9.806;2022-09-16T14:55:55;16.50;99.90
19348;DHT22;9810;52.480;9.806;2022-09-16T14:58:24;16.50;99.90
19348;DHT22;9810;52.480;9.806;2022-09-16T15:00:56;16.60;99.90
19348;DHT22;9810;52.480;9.806;2022-09-16T15:03:28;16.60;99.90
19348;DHT22;9810;52.480;9.806;2022-09-16T15:06:02;16.60;99.90
19348;DHT22;9810;52.480;9.806;2022-09-16T15:08:35;16.60;99.90
19348;DHT22;9810;52.480;9.806;2022-09-16T15:11:12;16.30;99.90
19348;DHT22;9810;52.480;9.806;2022-09-16T15:13:43;16.40;99.90
19348;DHT22;9810;52.480;9.806;2022-09-16T15:16:13;16.40;99.90
19348;DHT22;9810;52.480;9.806;2022-09-16T15:18:43;16.30;99.90
19348;DHT22;9810;52.480;9.806;2022-09-16T15:21:19;16.50;99.90
19348;DHT22;9810;52.480;9.806;2022-09-16T15:23:49;16.60;99.90
19348;DHT22;9810;52.480;9.806;2022-09-16T15:26:19;16.50;99.90
19348;DHT22;9810;52.480;9.806;2022-09-16T15:28:59;16.50;99.90
19348;DHT22;9810;52.480;9.806;2022-09-16T15:31:32;16.40;99.90
19348;DHT22;9810;52.480;9.806;2022-09-16T15:34:02;16.40;99.90
19348;DHT22;9810;52.480;9.806;2022-09-16T15:36:40;16.30;99.90
19348;DHT22;9810;52.480;9.806;2022-09-16T15:39:22;16.20;99.90
19348;DHT22;9810;52.480;9.806;2022-09-16T15:42:09;16.10;99.90
19348;DHT22;9810;52.480;9.806;2022-09-16T15:44:42;16.10;99.90
19348;DHT22;9810;52.480;9.806;2022-09-16T15:47:17;16.00;99.90
19348;DHT22;9810;52.480;9.806;2022-09-16T15:49:44;16.00;99.90
19348;DHT22;9810;52.480;9.806;2022-09-16T15:52:12;16.00;99.90
19348;DHT22;9810;52.480;9.806;2022-09-16T15:54:46;16.00;99.90
19348;DHT22;9810;52.480;9.806;2022-09-16T15:57:26;16.00;99.90
19348;DHT22;9810;52.480;9.806;2022-09-16T15:59:59;16.00;99.90
19348;DHT22;9810;52.480;9.806;2022-09-16T16:02:37;16.00;99.90
19348;DHT22;9810;52.480;9.806;2022-09-16T16:05:08;16.10;99.90
19348;DHT22;9810;52.480;9.806;2022-09-16T16:07:41;15.90;99.90
19348;DHT22;9810;52.480;9.806;2022-09-16T16:10:17;15.60;99.90
19348;DHT22;9810;52.480;9.806;2022-09-16T16:12:47;15.60;99.90
19348;DHT22;9810;52.480;9.806;2022-09-16T16:15:16;15.50;99.90
19348;DHT22;9810;52.480;9.806;2022-09-16T16:17:44;15.40;99.90
19348;DHT22;9810;52.480;9.806;2022-09-16T16:20:13;15.50;99.90
19348;DHT22;9810;52.480;9.806;2022-09-16T16:22:44;15.40;99.90
19348;DHT22;9810;52.480;9.806;2022-09-16T16:25:11;15.30;99.90
19348;DHT22;9810;52.480;9.806;2022-09-16T16:27:39;15.30;99.90
19348;DHT22;9810;52.480;9.806;2022-09-16T16:30:09;15.30;99.90
19348;DHT22;9810;52.480;9.806;2022-09-16T16:32:36;15.20;99.90
19348;DHT22;9810;52.480;9.806;2022-09-16T16:35:14;15.10;99.90
19348;DHT22;9810;52.480;9.806;2022-09-16T16:37:42;15.20;99.90
19348;DHT22;9810;52.480;9.806;2022-09-16T16:40:09;15.20;99.90